sensor_id;sensor_type;location;lat;lon;timestamp;temperature;humidity
65146;DHT22;51730;56.950;24.126;2022-11-20T00:00:19;-1.70;99.90
65146;DHT22;51730;56.950;24.126;2022-11-20T00:02:45;-1.70;99.90
65146;DHT22;51730;56.950;24.126;2022-11-20T00:05:12;-1.80;99.90
65146;DHT22;51730;56.950;24.126;2022-11-20T00:07:39;-1.80;99.90
65146;DHT22;51730;56.950;24.126;2022-11-20T00:10:07;-1.70;99.90
65146;DHT22;51730;56.950;24.126;2022-11-20T00:12:34;-1.60;99.90
65146;DHT22;51730;56.950;24.126;2022-11-20T00:15:01;-1.60;99.90
65146;DHT22;51730;56.950;24.126;2022-11-20T00:17:28;-1.60;99.90
65146;DHT22;51730;56.950;24.126;2022-11-20T00:19:55;-1.60;99.90
65146;DHT22;51730;56.950;24.126;2022-11-20T00:22:22;-1.70;99.90
65146;DHT22;51730;56.950;24.126;2022-11-20T00:24:49;-1.60;99.90
65146;DHT22;51730;56.950;24.126;2022-11-20T00:27:15;-1.60;99.90
65146;DHT22;51730;56.950;24.126;2022-11-20T00:29:42;-1.60;99.90
65146;DHT22;51730;56.950;24.126;2022-11-20T00:32:09;-1.60;99.90
65146;DHT22;51730;56.950;24.126;2022-11-20T00:34:36;-1.60;99.90
65146;DHT22;51730;56.950;24.126;2022-11-20T00:37:03;-1.60;99.90
65146;DHT22;51730;56.950;24.126;2022-11-20T00:39:30;-1.60;99.90
65146;DHT22;51730;56.950;24.126;2022-11-20T00:41:57;-1.60;99.90
65146;DHT22;51730;56.950;24.126;2022-11-20T00:44:24;-1.60;99.90
65146;DHT22;51730;56.950;24.126;2022-11-20T00:46:51;-1.70;99.90
65146;DHT22;51730;56.950;24.126;2022-11-20T00:49:17;-1.70;99.90
65146;DHT22;51730;56.950;24.126;2022-11-20T00:51:45;-1.70;99.90
65146;DHT22;51730;56.950;24.126;2022-11-20T00:54:12;-1.60;99.90
65146;DHT22;51730;56.950;24.126;2022-11-20T00:56:39;-1.60;99.90
65146;DHT22;51730;56.950;24.126;2022-11-20T00:59:08;-1.60;99.90
65146;DHT22;51730;56.950;24.126;2022-11-20T01:01:36;-1.60;99.90
65146;DHT22;51730;56.950;24.126;2022-11-20T01:04:03;-1.70;99.90
65146;DHT22;51730;56.950;24.126;2022-11-20T01:06:33;-1.60;99.90
65146;DHT22;51730;56.950;24.126;2022-11-20T01:09:05;-1.70;99.90
65146;DHT22;51730;56.950;24.126;2022-11-20T01:11:34;-1.60;99.90
65146;DHT22;51730;56.950;24.126;2022-11-20T01:14:03;-1.70;99.90
65146;DHT22;51730;56.950;24.126;2022-11-20T01:16:35;-1.80;99.90
65146;DHT22;51730;56.950;24.126;2022-11-20T01:19:05;-1.70;99.90
65146;DHT22;51730;56.950;24.126;2022-11-20T01:21:35;-1.70;99.90
65146;DHT22;51730;56.950;24.126;2022-11-20T01:24:04;-1.70;99.90
65146;DHT22;51730;56.950;24.126;2022-11-20T01:26:33;-1.70;99.90
65146;DHT22;51730;56.950;24.126;2022-11-20T01:29:01;-1.70;99.90
65146;DHT22;51730;56.950;24.126;2022-11-20T01:31:31;-1.70;99.90
65146;DHT22;51730;56.950;24.126;2022-11-20T01:34:04;-1.70;99.90
65146;DHT22;51730;56.950;24.126;2022-11-20T01:36:33;-1.70;99.90
65146;DHT22;51730;56.950;24.126;2022-11-20T01:39:16;-1.70;99.90
65146;DHT22;51730;56.950;24.126;2022-11-20T01:41:45;-1.70;99.90
65146;DHT22;51730;56.950;24.126;2022-11-20T01:44:49;-1.80;99.90
65146;DHT22;51730;56.950;24.126;2022-11-20T01:47:20;-1.90;99.90
65146;DHT22;51730;56.950;24.126;2022-11-20T01:49:56;-1.80;99.90
65146;DHT22;51730;56.950;24.126;2022-11-20T01:52:42;-1.80;99.90
65146;DHT22;51730;56.950;24.126;2022-11-20T01:55:24;-1.80;99.90
65146;DHT22;51730;56.950;24.126;2022-11-20T01:57:52;-1.80;99.90
65146;DHT22;51730;56.950;24.126;2022-11-20T02:00:20;-1.90;99.90
65146;DHT22;51730;56.950;24.126;2022-11-20T02:02:58;-1.80;99.90
65146;DHT22;51730;56.950;24.126;2022-11-20T02:07:59;-1.80;99.90
65146;DHT22;51730;56.950;24.126;2022-11-20T02:10:27;-1.80;99.90
65146;DHT22;51730;56.950;24.126;2022-11-20T02:12:55;-1.80;99.90
65146;DHT22;51730;56.950;24.126;2022-11-20T02:15:41;-1.80;99.90
65146;DHT22;51730;56.950;24.126;2022-11-20T02:18:09;-1.70;99.90
65146;DHT22;51730;56.950;24.126;2022-11-20T02:20:37;-1.70;99.90
65146;DHT22;51730;56.950;24.126;2022-11-20T02:23:10;-1.80;99.90
65146;DHT22;51730;56.950;24.126;2022-11-20T02:25:39;-1.80;99.90
65146;DHT22;51730;56.950;24.126;2022-11-20T02:28:06;-1.60;99.90
65146;DHT22;51730;56.950;24.126;2022-11-20T02:30:33;-1.70;99.90
65146;DHT22;51730;56.950;24.126;2022-11-20T02:33:00;-1.80;99.90
65146;DHT22;51730;56.950;24.126;2022-11-20T02:37:54;-1.70;99.90
65146;DHT22;51730;56.950;24.126;2022-11-20T02:40:23;-1.70;99.90
65146;DHT22;51730;56.950;24.126;2022-11-20T02:42:56;-1.70;99.90
65146;DHT22;51730;56.950;24.126;2022-11-20T02:45:24;-1.80;99.90
65146;DHT22;51730;56.950;24.126;2022-11-20T02:47:51;-1.80;99.90
65146;DHT22;51730;56.950;24.126;2022-11-20T02:50:18;-1.70;99.90
65146;DHT22;51730;56.950;24.126;2022-11-20T02:52:46;-1.80;99.90
65146;DHT22;51730;56.950;24.126;2022-11-20T02:55:13;-1.70;99.90
65146;DHT22;51730;56.950;24.126;2022-11-20T02:57:40;-1.70;99.90
65146;DHT22;51730;56.950;24.126;2022-11-20T03:00:07;-1.80;99.90
65146;DHT22;51730;56.950;24.126;2022-11-20T03:02:34;-1.80;99.90
65146;DHT22;51730;56.950;24.126;2022-11-20T03:05:01;-1.80;99.90
65146;DHT22;51730;56.950;24.126;2022-11-20T03:07:28;-1.80;99.90
65146;DHT22;51730;56.950;24.126;2022-11-20T03:09:55;-1.80;99.90
65146;DHT22;51730;56.950;24.126;2022-11-20T03:12:22;-1.80;99.90
65146;DHT22;51730;56.950;24.126;2022-11-20T03:14:49;-1.90;99.90
65146;DHT22;51730;56.950;24.126;2022-11-20T03:17:19;-2.00;99.90
65146;DHT22;51730;56.950;24.126;2022-11-20T03:19:46;-1.90;99.90
65146;DHT22;51730;56.950;24.126;2022-11-20T03:22:13;-1.90;99.90
65146;DHT22;51730;56.950;24.126;2022-11-20T03:24:40;-1.90;99.90
65146;DHT22;51730;56.950;24.126;2022-11-20T03:27:07;-2.00;99.90
65146;DHT22;51730;56.950;24.126;2022-11-20T03:29:35;-2.10;99.90
65146;DHT22;51730;56.950;24.126;2022-11-20T03:32:02;-2.00;99.90
65146;DHT22;51730;56.950;24.126;2022-11-20T03:34:29;-2.00;99.90
65146;DHT22;51730;56.950;24.126;2022-11-20T03:36:56;-1.90;99.90
65146;DHT22;51730;56.950;24.126;2022-11-20T03:39:22;-1.90;99.90
65146;DHT22;51730;56.950;24.126;2022-11-20T03:41:50;-1.90;99.90
65146;DHT22;51730;56.950;24.126;2022-11-20T03:44:17;-2.00;99.90
65146;DHT22;51730;56.950;24.126;2022-11-20T03:46:44;-1.90;99.90
65146;DHT22;51730;56.950;24.126;2022-11-20T03:49:10;-2.00;99.90
65146;DHT22;51730;56.950;24.126;2022-11-20T03:51:37;-1.90;99.90
65146;DHT22;51730;56.950;24.126;2022-11-20T03:54:07;-1.90;99.90
65146;DHT22;51730;56.950;24.126;2022-11-20T03:56:37;-2.00;99.90
65146;DHT22;51730;56.950;24.126;2022-11-20T03:59:05;-2.00;99.90
65146;DHT22;51730;56.950;24.126;2022-11-20T04:01:35;-2.00;99.90
65146;DHT22;51730;56.950;24.126;2022-11-20T04:04:02;-2.00;99.90
65146;DHT22;51730;56.950;24.126;2022-11-20T04:06:35;-1.90;99.90
65146;DHT22;51730;56.950;24.126;2022-11-20T04:09:02;-1.90;99.90
65146;DHT22;51730;56.950;24.126;2022-11-20T04:11:32;-2.00;99.90
65146;DHT22;51730;56.950;24.126;2022-11-20T04:14:01;-2.00;99.90
65146;DHT22;51730;56.950;24.126;2022-11-20T04:16:30;-2.00;99.90
65146;DHT22;51730;56.950;24.126;2022-11-20T04:18:59;-2.10;99.90
65146;DHT22;51730;56.950;24.126;2022-11-20T04:21:27;-2.00;99.90
65146;DHT22;51730;56.950;24.126;2022-11-20T04:23:54;-2.00;99.90
65146;DHT22;51730;56.950;24.126;2022-11-20T04:26:23;-2.00;99.90
65146;DHT22;51730;56.950;24.126;2022-11-20T04:28:50;-2.00;99.90
65146;DHT22;51730;56.950;24.126;2022-11-20T04:31:21;-2.10;99.90
65146;DHT22;51730;56.950;24.126;2022-11-20T04:33:48;-2.00;99.90
65146;DHT22;51730;56.950;24.126;2022-11-20T04:36:17;-2.10;99.90
65146;DHT22;51730;56.950;24.126;2022-11-20T04:38:45;-2.10;99.90
65146;DHT22;51730;56.950;24.126;2022-11-20T04:41:17;-2.00;99.90
65146;DHT22;51730;56.950;24.126;2022-11-20T04:43:52;-2.00;99.90
65146;DHT22;51730;56.950;24.126;2022-11-20T04:46:20;-2.10;99.90
65146;DHT22;51730;56.950;24.126;2022-11-20T04:48:47;-2.00;99.90
65146;DHT22;51730;56.950;24.126;2022-11-20T04:51:14;-2.00;99.90
65146;DHT22;51730;56.950;24.126;2022-11-20T04:53:41;-2.00;99.90
65146;DHT22;51730;56.950;24.126;2022-11-20T04:56:10;-2.00;99.90
65146;DHT22;51730;56.950;24.126;2022-11-20T04:58:38;-2.20;99.90
65146;DHT22;51730;56.950;24.126;2022-11-20T05:01:10;-2.10;99.90
65146;DHT22;51730;56.950;24.126;2022-11-20T05:03:38;-2.10;99.90
65146;DHT22;51730;56.950;24.126;2022-11-20T05:06:09;-2.10;99.90
65146;DHT22;51730;56.950;24.126;2022-11-20T05:08:37;-2.20;99.90
65146;DHT22;51730;56.950;24.126;2022-11-20T05:11:07;-2.10;99.90
65146;DHT22;51730;56.950;24.126;2022-11-20T05:13:34;-2.10;99.90
65146;DHT22;51730;56.950;24.126;2022-11-20T05:16:16;-2.20;99.90
65146;DHT22;51730;56.950;24.126;2022-11-20T05:18:43;-2.20;99.90
65146;DHT22;51730;56.950;24.126;2022-11-20T05:21:11;-2.20;99.90
65146;DHT22;51730;56.950;24.126;2022-11-20T05:23:39;-2.10;99.90
65146;DHT22;51730;56.950;24.126;2022-11-20T05:26:08;-2.10;99.90
65146;DHT22;51730;56.950;24.126;2022-11-20T05:28:35;-2.20;99.90
65146;DHT22;51730;56.950;24.126;2022-11-20T05:31:07;-2.20;99.90
65146;DHT22;51730;56.950;24.126;2022-11-20T05:33:39;-2.10;99.90
65146;DHT22;51730;56.950;24.126;2022-11-20T05:36:07;-2.10;99.90
65146;DHT22;51730;56.950;24.126;2022-11-20T05:38:34;-2.20;99.90
65146;DHT22;51730;56.950;24.126;2022-11-20T05:43:39;-2.20;99.90
65146;DHT22;51730;56.950;24.126;2022-11-20T05:46:08;-2.20;99.90
65146;DHT22;51730;56.950;24.126;2022-11-20T05:48:36;-2.20;99.90
65146;DHT22;51730;56.950;24.126;2022-11-20T05:51:06;-2.20;99.90
65146;DHT22;51730;56.950;24.126;2022-11-20T05:53:34;-2.20;99.90
65146;DHT22;51730;56.950;24.126;2022-11-20T05:56:12;-2.10;99.90
65146;DHT22;51730;56.950;24.126;2022-11-20T05:58:40;-2.20;99.90
65146;DHT22;51730;56.950;24.126;2022-11-20T06:01:10;-2.20;99.90
65146;DHT22;51730;56.950;24.126;2022-11-20T06:03:38;-2.10;99.90
65146;DHT22;51730;56.950;24.126;2022-11-20T06:06:05;-2.20;99.90
65146;DHT22;51730;56.950;24.126;2022-11-20T06:08:33;-2.10;99.90
65146;DHT22;51730;56.950;24.126;2022-11-20T06:11:07;-2.20;99.90
65146;DHT22;51730;56.950;24.126;2022-11-20T06:13:34;-2.30;99.90
65146;DHT22;51730;56.950;24.126;2022-11-20T06:16:07;-2.30;99.90
65146;DHT22;51730;56.950;24.126;2022-11-20T06:18:34;-2.30;99.90
65146;DHT22;51730;56.950;24.126;2022-11-20T06:21:03;-2.30;99.90
65146;DHT22;51730;56.950;24.126;2022-11-20T06:23:32;-2.30;99.90
65146;DHT22;51730;56.950;24.126;2022-11-20T06:26:10;-2.30;99.90
65146;DHT22;51730;56.950;24.126;2022-11-20T06:28:37;-2.20;99.90
65146;DHT22;51730;56.950;24.126;2022-11-20T06:31:05;-2.30;99.90
65146;DHT22;51730;56.950;24.126;2022-11-20T06:33:33;-2.30;99.90
65146;DHT22;51730;56.950;24.126;2022-11-20T06:36:00;-2.20;99.90
65146;DHT22;51730;56.950;24.126;2022-11-20T06:38:35;-2.30;99.90
65146;DHT22;51730;56.950;24.126;2022-11-20T06:41:04;-2.30;99.90
65146;DHT22;51730;56.950;24.126;2022-11-20T06:43:31;-2.30;99.90
65146;DHT22;51730;56.950;24.126;2022-11-20T06:45:58;-2.30;99.90
65146;DHT22;51730;56.950;24.126;2022-11-20T06:48:27;-2.20;99.90
65146;DHT22;51730;56.950;24.126;2022-11-20T06:50:55;-2.20;99.90
65146;DHT22;51730;56.950;24.126;2022-11-20T06:53:22;-2.20;99.90
65146;DHT22;51730;56.950;24.126;2022-11-20T06:55:50;-2.20;99.90
65146;DHT22;51730;56.950;24.126;2022-11-20T06:58:17;-2.30;99.90
65146;DHT22;51730;56.950;24.126;2022-11-20T07:00:44;-2.30;99.90
65146;DHT22;51730;56.950;24.126;2022-11-20T07:03:12;-2.20;99.90
65146;DHT22;51730;56.950;24.126;2022-11-20T07:05:39;-2.20;99.90
65146;DHT22;51730;56.950;24.126;2022-11-20T07:08:07;-2.10;99.90
65146;DHT22;51730;56.950;24.126;2022-11-20T07:10:34;-2.10;99.90
65146;DHT22;51730;56.950;24.126;2022-11-20T07:13:01;-2.20;99.90
65146;DHT22;51730;56.950;24.126;2022-11-20T07:15:28;-2.10;99.90
65146;DHT22;51730;56.950;24.126;2022-11-20T07:17:55;-2.10;99.90
65146;DHT22;51730;56.950;24.126;2022-11-20T07:20:24;-2.20;99.90
65146;DHT22;51730;56.950;24.126;2022-11-20T07:22:58;-2.20;99.90
65146;DHT22;51730;56.950;24.126;2022-11-20T07:25:25;-2.20;99.90
65146;DHT22;51730;56.950;24.126;2022-11-20T07:27:56;-2.20;99.90
65146;DHT22;51730;56.950;24.126;2022-11-20T07:30:23;-2.10;99.90
65146;DHT22;51730;56.950;24.126;2022-11-20T07:32:53;-2.10;99.90
65146;DHT22;51730;56.950;24.126;2022-11-20T07:35:21;-2.20;99.90
65146;DHT22;51730;56.950;24.126;2022-11-20T07:37:48;-2.00;99.90
65146;DHT22;51730;56.950;24.126;2022-11-20T07:40:16;-2.00;99.90
65146;DHT22;51730;56.950;24.126;2022-11-20T07:42:50;-2.10;99.90
65146;DHT22;51730;56.950;24.126;2022-11-20T07:45:18;-2.10;99.90
65146;DHT22;51730;56.950;24.126;2022-11-20T07:47:44;-2.10;99.90
65146;DHT22;51730;56.950;24.126;2022-11-20T07:50:12;-2.20;99.90
65146;DHT22;51730;56.950;24.126;2022-11-20T07:52:40;-2.20;99.90
65146;DHT22;51730;56.950;24.126;2022-11-20T07:55:08;-2.20;99.90
65146;DHT22;51730;56.950;24.126;2022-11-20T07:57:35;-2.20;99.00
65146;DHT22;51730;56.950;24.126;2022-11-20T08:00:03;-2.20;99.50
65146;DHT22;51730;56.950;24.126;2022-11-20T08:02:30;-2.20;98.40
65146;DHT22;51730;56.950;24.126;2022-11-20T08:04:57;-2.20;98.20
65146;DHT22;51730;56.950;24.126;2022-11-20T08:07:24;-2.20;99.20
65146;DHT22;51730;56.950;24.126;2022-11-20T08:09:51;-2.20;99.00
65146;DHT22;51730;56.950;24.126;2022-11-20T08:12:19;-2.20;98.70
65146;DHT22;51730;56.950;24.126;2022-11-20T08:15:06;-2.20;98.50
65146;DHT22;51730;56.950;24.126;2022-11-20T08:17:38;-2.20;98.00
65146;DHT22;51730;56.950;24.126;2022-11-20T08:20:06;-2.10;99.70
65146;DHT22;51730;56.950;24.126;2022-11-20T08:22:32;-2.20;98.20
65146;DHT22;51730;56.950;24.126;2022-11-20T08:24:59;-2.30;99.00
65146;DHT22;51730;56.950;24.126;2022-11-20T08:27:27;-2.20;99.20
65146;DHT22;51730;56.950;24.126;2022-11-20T08:29:54;-2.20;99.10
65146;DHT22;51730;56.950;24.126;2022-11-20T08:32:21;-2.20;98.90
65146;DHT22;51730;56.950;24.126;2022-11-20T08:34:48;-2.10;98.10
65146;DHT22;51730;56.950;24.126;2022-11-20T08:37:15;-2.20;98.00
65146;DHT22;51730;56.950;24.126;2022-11-20T08:39:42;-2.30;98.60
65146;DHT22;51730;56.950;24.126;2022-11-20T08:42:09;-2.20;98.20
65146;DHT22;51730;56.950;24.126;2022-11-20T08:44:36;-2.20;98.30
65146;DHT22;51730;56.950;24.126;2022-11-20T08:47:03;-2.00;97.60
65146;DHT22;51730;56.950;24.126;2022-11-20T08:49:30;-2.00;97.00
65146;DHT22;51730;56.950;24.126;2022-11-20T08:51:57;-2.10;97.00
65146;DHT22;51730;56.950;24.126;2022-11-20T08:54:24;-2.10;97.70
65146;DHT22;51730;56.950;24.126;2022-11-20T08:56:51;-2.10;97.10
65146;DHT22;51730;56.950;24.126;2022-11-20T08:59:18;-1.90;97.30
65146;DHT22;51730;56.950;24.126;2022-11-20T09:02:05;-1.90;96.40
65146;DHT22;51730;56.950;24.126;2022-11-20T09:04:32;-1.70;95.60
65146;DHT22;51730;56.950;24.126;2022-11-20T09:07:00;-1.60;94.90
65146;DHT22;51730;56.950;24.126;2022-11-20T09:09:27;-1.70;94.00
65146;DHT22;51730;56.950;24.126;2022-11-20T09:11:53;-1.80;94.00
65146;DHT22;51730;56.950;24.126;2022-11-20T09:14:21;-1.80;94.40
65146;DHT22;51730;56.950;24.126;2022-11-20T09:16:48;-1.90;93.80
65146;DHT22;51730;56.950;24.126;2022-11-20T09:19:14;-1.90;93.80
65146;DHT22;51730;56.950;24.126;2022-11-20T09:22:02;-1.90;94.60
65146;DHT22;51730;56.950;24.126;2022-11-20T09:24:29;-1.90;94.30
65146;DHT22;51730;56.950;24.126;2022-11-20T09:26:56;-2.00;95.10
65146;DHT22;51730;56.950;24.126;2022-11-20T09:29:23;-2.10;95.90
65146;DHT22;51730;56.950;24.126;2022-11-20T09:31:50;-2.00;96.10
65146;DHT22;51730;56.950;24.126;2022-11-20T09:34:17;-2.10;96.00
65146;DHT22;51730;56.950;24.126;2022-11-20T09:36:43;-2.10;96.10
65146;DHT22;51730;56.950;24.126;2022-11-20T09:39:11;-2.10;96.90
65146;DHT22;51730;56.950;24.126;2022-11-20T09:44:38;-2.10;97.20
65146;DHT22;51730;56.950;24.126;2022-11-20T09:48:08;-2.10;96.80
65146;DHT22;51730;56.950;24.126;2022-11-20T09:56:03;-2.00;96.00
65146;DHT22;51730;56.950;24.126;2022-11-20T09:58:50;-1.90;95.30
65146;DHT22;51730;56.950;24.126;2022-11-20T10:01:20;-1.90;95.20
65146;DHT22;51730;56.950;24.126;2022-11-20T10:04:10;-2.00;94.90
65146;DHT22;51730;56.950;24.126;2022-11-20T10:06:42;-1.90;94.90
65146;DHT22;51730;56.950;24.126;2022-11-20T10:12:05;-1.90;93.50
65146;DHT22;51730;56.950;24.126;2022-11-20T10:17:33;-1.90;93.30
65146;DHT22;51730;56.950;24.126;2022-11-20T10:25:44;-2.00;92.70
65146;DHT22;51730;56.950;24.126;2022-11-20T10:30:45;-2.00;92.70
65146;DHT22;51730;56.950;24.126;2022-11-20T10:33:22;-2.00;92.40
65146;DHT22;51730;56.950;24.126;2022-11-20T10:36:16;-2.00;91.90
65146;DHT22;51730;56.950;24.126;2022-11-20T10:38:48;-1.90;92.10
65146;DHT22;51730;56.950;24.126;2022-11-20T10:41:29;-1.90;92.00
65146;DHT22;51730;56.950;24.126;2022-11-20T10:44:10;-2.00;91.20
65146;DHT22;51730;56.950;24.126;2022-11-20T10:46:44;-2.00;91.80
65146;DHT22;51730;56.950;24.126;2022-11-20T10:49:16;-2.00;91.90
65146;DHT22;51730;56.950;24.126;2022-11-20T10:57:29;-2.00;91.60
65146;DHT22;51730;56.950;24.126;2022-11-20T11:00:08;-2.10;91.80
65146;DHT22;51730;56.950;24.126;2022-11-20T11:02:47;-2.00;91.90
65146;DHT22;51730;56.950;24.126;2022-11-20T11:05:39;-1.90;92.10
65146;DHT22;51730;56.950;24.126;2022-11-20T11:08:18;-1.90;92.20
65146;DHT22;51730;56.950;24.126;2022-11-20T11:11:00;-1.80;92.80
65146;DHT22;51730;56.950;24.126;2022-11-20T11:13:31;-1.80;92.90
65146;DHT22;51730;56.950;24.126;2022-11-20T11:15:58;-1.70;92.60
65146;DHT22;51730;56.950;24.126;2022-11-20T11:18:30;-1.80;92.70
65146;DHT22;51730;56.950;24.126;2022-11-20T11:21:00;-1.80;93.10
65146;DHT22;51730;56.950;24.126;2022-11-20T11:26:06;-2.00;91.90
65146;DHT22;51730;56.950;24.126;2022-11-20T11:28:34;-2.00;92.40
65146;DHT22;51730;56.950;24.126;2022-11-20T11:31:01;-1.90;91.90
65146;DHT22;51730;56.950;24.126;2022-11-20T11:33:31;-2.00;92.00
65146;DHT22;51730;56.950;24.126;2022-11-20T11:36:00;-2.00;91.60
65146;DHT22;51730;56.950;24.126;2022-11-20T11:38:32;-2.00;92.60
65146;DHT22;51730;56.950;24.126;2022-11-20T11:41:01;-2.10;92.50
65146;DHT22;51730;56.950;24.126;2022-11-20T11:43:33;-2.00;92.50
65146;DHT22;51730;56.950;24.126;2022-11-20T11:52:00;-1.90;92.20
65146;DHT22;51730;56.950;24.126;2022-11-20T11:57:01;-1.80;91.70
65146;DHT22;51730;56.950;24.126;2022-11-20T12:10:58;-1.90;92.20
65146;DHT22;51730;56.950;24.126;2022-11-20T12:16:18;-1.90;92.10
65146;DHT22;51730;56.950;24.126;2022-11-20T12:18:49;-2.00;92.20
65146;DHT22;51730;56.950;24.126;2022-11-20T12:35:02;-2.20;93.90
65146;DHT22;51730;56.950;24.126;2022-11-20T12:40:47;-2.10;93.10
65146;DHT22;51730;56.950;24.126;2022-11-20T12:57:32;-2.30;93.00
65146;DHT22;51730;56.950;24.126;2022-11-20T13:02:58;-2.40;93.20
65146;DHT22;51730;56.950;24.126;2022-11-20T13:08:02;-2.60;93.90
65146;DHT22;51730;56.950;24.126;2022-11-20T13:13:20;-2.60;93.60
65146;DHT22;51730;56.950;24.126;2022-11-20T13:16:15;-2.60;95.10
65146;DHT22;51730;56.950;24.126;2022-11-20T13:18:42;-2.70;94.40
65146;DHT22;51730;56.950;24.126;2022-11-20T13:21:39;-2.60;96.30
65146;DHT22;51730;56.950;24.126;2022-11-20T13:24:20;-2.70;96.20
65146;DHT22;51730;56.950;24.126;2022-11-20T13:27:23;-2.80;96.20
65146;DHT22;51730;56.950;24.126;2022-11-20T13:30:14;-2.80;96.80
65146;DHT22;51730;56.950;24.126;2022-11-20T13:32:49;-2.80;97.40
65146;DHT22;51730;56.950;24.126;2022-11-20T13:35:27;-2.90;96.70
65146;DHT22;51730;56.950;24.126;2022-11-20T13:40:35;-2.70;97.30
65146;DHT22;51730;56.950;24.126;2022-11-20T13:45:35;-2.70;96.60
65146;DHT22;51730;56.950;24.126;2022-11-20T13:48:04;-2.70;97.60
65146;DHT22;51730;56.950;24.126;2022-11-20T13:50:56;-2.70;98.50
65146;DHT22;51730;56.950;24.126;2022-11-20T13:53:48;-2.80;97.90
65146;DHT22;51730;56.950;24.126;2022-11-20T14:01:53;-2.80;97.60
65146;DHT22;51730;56.950;24.126;2022-11-20T14:04:29;-2.80;97.90
65146;DHT22;51730;56.950;24.126;2022-11-20T14:06:57;-2.80;98.30
65146;DHT22;51730;56.950;24.126;2022-11-20T14:11:53;-2.70;98.80
65146;DHT22;51730;56.950;24.126;2022-11-20T14:14:22;-2.60;99.00
65146;DHT22;51730;56.950;24.126;2022-11-20T14:16:50;-2.60;98.40
65146;DHT22;51730;56.950;24.126;2022-11-20T14:21:52;-2.50;99.60
65146;DHT22;51730;56.950;24.126;2022-11-20T14:24:21;-2.60;99.30
65146;DHT22;51730;56.950;24.126;2022-11-20T14:26:51;-2.50;99.90
65146;DHT22;51730;56.950;24.126;2022-11-20T14:29:26;-2.60;98.40
65146;DHT22;51730;56.950;24.126;2022-11-20T14:31:54;-2.50;98.90
65146;DHT22;51730;56.950;24.126;2022-11-20T14:34:30;-2.60;99.50
65146;DHT22;51730;56.950;24.126;2022-11-20T14:37:03;-2.60;99.90
65146;DHT22;51730;56.950;24.126;2022-11-20T14:39:41;-2.50;99.90
65146;DHT22;51730;56.950;24.126;2022-11-20T14:42:16;-2.50;99.90
65146;DHT22;51730;56.950;24.126;2022-11-20T14:44:44;-2.50;99.90
65146;DHT22;51730;56.950;24.126;2022-11-20T14:47:13;-2.40;99.90
65146;DHT22;51730;56.950;24.126;2022-11-20T14:49:42;-2.50;99.90
65146;DHT22;51730;56.950;24.126;2022-11-20T14:52:18;-2.40;99.90
65146;DHT22;51730;56.950;24.126;2022-11-20T14:54:47;-2.50;99.90
65146;DHT22;51730;56.950;24.126;2022-11-20T14:57:31;-2.60;99.90
65146;DHT22;51730;56.950;24.126;2022-11-20T15:02:42;-2.50;99.90
65146;DHT22;51730;56.950;24.126;2022-11-20T15:05:09;-2.50;99.90
65146;DHT22;51730;56.950;24.126;2022-11-20T15:07:39;-2.50;99.90
65146;DHT22;51730;56.950;24.126;2022-11-20T15:10:27;-2.60;99.90
65146;DHT22;51730;56.950;24.126;2022-11-20T15:12:58;-2.60;99.90
65146;DHT22;51730;56.950;24.126;2022-11-20T15:15:33;-2.70;99.60
65146;DHT22;51730;56.950;24.126;2022-11-20T15:18:02;-2.70;99.90
65146;DHT22;51730;56.950;24.126;2022-11-20T15:20:31;-2.70;99.90
65146;DHT22;51730;56.950;24.126;2022-11-20T15:22:59;-2.60;99.90
65146;DHT22;51730;56.950;24.126;2022-11-20T15:25:26;-2.70;99.90
65146;DHT22;51730;56.950;24.126;2022-11-20T15:27:55;-2.70;99.90
65146;DHT22;51730;56.950;24.126;2022-11-20T15:30:23;-2.80;99.90
65146;DHT22;51730;56.950;24.126;2022-11-20T15:32:50;-2.80;99.90
65146;DHT22;51730;56.950;24.126;2022-11-20T15:35:17;-2.80;99.90
65146;DHT22;51730;56.950;24.126;2022-11-20T15:37:44;-2.80;99.90
65146;DHT22;51730;56.950;24.126;2022-11-20T15:40:11;-2.70;99.90
65146;DHT22;51730;56.950;24.126;2022-11-20T15:42:38;-2.70;99.90
65146;DHT22;51730;56.950;24.126;2022-11-20T15:45:26;-2.80;99.90
65146;DHT22;51730;56.950;24.126;2022-11-20T15:47:54;-2.90;99.90
65146;DHT22;51730;56.950;24.126;2022-11-20T15:50:22;-2.90;99.90
65146;DHT22;51730;56.950;24.126;2022-11-20T15:52:51;-2.90;99.90
65146;DHT22;51730;56.950;24.126;2022-11-20T15:55:18;-2.90;99.90
65146;DHT22;51730;56.950;24.126;2022-11-20T15:57:46;-2.90;99.90
65146;DHT22;51730;56.950;24.126;2022-11-20T16:00:13;-2.90;99.90
65146;DHT22;51730;56.950;24.126;2022-11-20T16:02:47;-3.00;99.90
65146;DHT22;51730;56.950;24.126;2022-11-20T16:05:15;-3.00;99.90
65146;DHT22;51730;56.950;24.126;2022-11-20T16:07:42;-2.90;99.90
65146;DHT22;51730;56.950;24.126;2022-11-20T16:10:09;-3.00;99.90
65146;DHT22;51730;56.950;24.126;2022-11-20T16:12:35;-3.10;99.90
65146;DHT22;51730;56.950;24.126;2022-11-20T16:15:23;-3.00;99.90
65146;DHT22;51730;56.950;24.126;2022-11-20T16:18:10;-3.00;99.90
65146;DHT22;51730;56.950;24.126;2022-11-20T16:20:37;-2.90;99.90
65146;DHT22;51730;56.950;24.126;2022-11-20T16:23:05;-3.00;99.90
65146;DHT22;51730;56.950;24.126;2022-11-20T16:25:32;-3.00;99.90
65146;DHT22;51730;56.950;24.126;2022-11-20T16:27:59;-3.10;99.90
65146;DHT22;51730;56.950;24.126;2022-11-20T16:30:27;-3.10;99.90
65146;DHT22;51730;56.950;24.126;2022-11-20T16:32:54;-3.00;99.90
65146;DHT22;51730;56.950;24.126;2022-11-20T16:35:20;-3.10;99.90
65146;DHT22;51730;56.950;24.126;2022-11-20T16:37:47;-3.20;99.90
65146;DHT22;51730;56.950;24.126;2022-11-20T16:40:14;-3.20;99.90
65146;DHT22;51730;56.950;24.126;2022-11-20T16:42:41;-3.20;99.90
65146;DHT22;51730;56.950;24.126;2022-11-20T16:45:08;-3.30;99.90
65146;DHT22;51730;56.950;24.126;2022-11-20T16:47:35;-3.30;99.90
65146;DHT22;51730;56.950;24.126;2022-11-20T16:50:03;-3.20;99.90
65146;DHT22;51730;56.950;24.126;2022-11-20T16:52:31;-3.20;99.90
65146;DHT22;51730;56.950;24.126;2022-11-20T16:54:58;-3.30;99.90
65146;DHT22;51730;56.950;24.126;2022-11-20T16:57:28;-3.30;99.90
65146;DHT22;51730;56.950;24.126;2022-11-20T16:59:55;-3.30;99.90
65146;DHT22;51730;56.950;24.126;2022-11-20T17:02:27;-3.20;99.90
65146;DHT22;51730;56.950;24.126;2022-11-20T17:04:54;-3.30;99.90
65146;DHT22;51730;56.950;24.126;2022-11-20T17:07:21;-3.30;99.90
65146;DHT22;51730;56.950;24.126;2022-11-20T17:09:48;-3.30;99.90
65146;DHT22;51730;56.950;24.126;2022-11-20T17:12:15;-3.30;99.90
65146;DHT22;51730;56.950;24.126;2022-11-20T17:14:42;-3.30;99.90
65146;DHT22;51730;56.950;24.126;2022-11-20T17:17:09;-3.30;99.90
65146;DHT22;51730;56.950;24.126;2022-11-20T17:19:35;-3.30;99.90
65146;DHT22;51730;56.950;24.126;2022-11-20T17:22:02;-3.40;99.90
65146;DHT22;51730;56.950;24.126;2022-11-20T17:24:29;-3.30;99.90
65146;DHT22;51730;56.950;24.126;2022-11-20T17:26:57;-3.30;99.90
65146;DHT22;51730;56.950;24.126;2022-11-20T17:29:24;-3.30;99.90
65146;DHT22;51730;56.950;24.126;2022-11-20T17:31:53;-3.20;99.90